sensor_id;sensor_type;location;lat;lon;timestamp;temperature;humidity
64705;DHT22;51131;52.298;13.686;2023-08-24T00:01:25;22.30;81.30
64705;DHT22;51131;52.298;13.686;2023-08-24T00:03:52;22.30;81.30
64705;DHT22;51131;52.298;13.686;2023-08-24T00:06:19;22.30;81.40
64705;DHT22;51131;52.298;13.686;2023-08-24T00:08:46;22.30;81.40
64705;DHT22;51131;52.298;13.686;2023-08-24T00:11:13;22.40;81.50
64705;DHT22;51131;52.298;13.686;2023-08-24T00:13:42;22.30;81.50
64705;DHT22;51131;52.298;13.686;2023-08-24T00:16:15;22.30;81.40
64705;DHT22;51131;52.298;13.686;2023-08-24T00:18:42;22.30;81.30
64705;DHT22;51131;52.298;13.686;2023-08-24T00:21:09;22.30;81.30
64705;DHT22;51131;52.298;13.686;2023-08-24T00:23:35;22.20;81.30
64705;DHT22;51131;52.298;13.686;2023-08-24T00:26:02;22.20;81.30
64705;DHT22;51131;52.298;13.686;2023-08-24T00:28:29;22.20;81.30
64705;DHT22;51131;52.298;13.686;2023-08-24T00:30:56;22.30;81.40
64705;DHT22;51131;52.298;13.686;2023-08-24T00:33:22;22.30;81.50
64705;DHT22;51131;52.298;13.686;2023-08-24T00:35:49;22.30;81.40
64705;DHT22;51131;52.298;13.686;2023-08-24T00:38:16;22.30;81.30
64705;DHT22;51131;52.298;13.686;2023-08-24T00:40:43;22.30;81.40
64705;DHT22;51131;52.298;13.686;2023-08-24T00:43:10;22.20;81.20
64705;DHT22;51131;52.298;13.686;2023-08-24T00:45:37;22.20;81.90
64705;DHT22;51131;52.298;13.686;2023-08-24T00:48:04;22.20;81.20
64705;DHT22;51131;52.298;13.686;2023-08-24T00:50:30;22.20;81.20
64705;DHT22;51131;52.298;13.686;2023-08-24T00:52:57;22.20;81.10
64705;DHT22;51131;52.298;13.686;2023-08-24T00:55:24;22.20;81.20
64705;DHT22;51131;52.298;13.686;2023-08-24T00:57:51;22.20;81.20
64705;DHT22;51131;52.298;13.686;2023-08-24T01:00:18;22.40;81.50
64705;DHT22;51131;52.298;13.686;2023-08-24T01:02:45;22.20;81.30
64705;DHT22;51131;52.298;13.686;2023-08-24T01:05:12;22.30;82.00
64705;DHT22;51131;52.298;13.686;2023-08-24T01:07:39;22.20;81.10
64705;DHT22;51131;52.298;13.686;2023-08-24T01:10:06;22.20;81.10
64705;DHT22;51131;52.298;13.686;2023-08-24T01:15:20;22.20;81.10
64705;DHT22;51131;52.298;13.686;2023-08-24T01:17:49;22.20;81.10
64705;DHT22;51131;52.298;13.686;2023-08-24T01:20:16;22.30;81.30
64705;DHT22;51131;52.298;13.686;2023-08-24T01:23:48;22.30;81.30
64705;DHT22;51131;52.298;13.686;2023-08-24T01:25:42;22.20;81.20
64705;DHT22;51131;52.298;13.686;2023-08-24T01:28:12;22.20;81.10
64705;DHT22;51131;52.298;13.686;2023-08-24T01:30:39;22.20;81.10
64705;DHT22;51131;52.298;13.686;2023-08-24T01:33:06;22.20;81.10
64705;DHT22;51131;52.298;13.686;2023-08-24T01:35:38;22.30;81.20
64705;DHT22;51131;52.298;13.686;2023-08-24T01:38:05;22.20;81.10
64705;DHT22;51131;52.298;13.686;2023-08-24T01:43:01;22.20;81.10
64705;DHT22;51131;52.298;13.686;2023-08-24T01:45:29;22.20;81.10
64705;DHT22;51131;52.298;13.686;2023-08-24T01:47:56;22.10;81.00
64705;DHT22;51131;52.298;13.686;2023-08-24T01:50:24;22.20;81.20
64705;DHT22;51131;52.298;13.686;2023-08-24T01:52:50;22.20;81.10
64705;DHT22;51131;52.298;13.686;2023-08-24T01:55:18;22.20;81.10
64705;DHT22;51131;52.298;13.686;2023-08-24T01:57:44;22.20;81.10
64705;DHT22;51131;52.298;13.686;2023-08-24T02:00:11;22.10;81.00
64705;DHT22;51131;52.298;13.686;2023-08-24T02:02:38;22.20;81.10
64705;DHT22;51131;52.298;13.686;2023-08-24T02:05:05;22.20;81.20
64705;DHT22;51131;52.298;13.686;2023-08-24T02:07:31;22.10;81.00
64705;DHT22;51131;52.298;13.686;2023-08-24T02:09:58;22.20;81.10
64705;DHT22;51131;52.298;13.686;2023-08-24T02:12:25;22.20;81.10
64705;DHT22;51131;52.298;13.686;2023-08-24T02:14:51;22.10;80.90
64705;DHT22;51131;52.298;13.686;2023-08-24T02:17:18;22.20;81.10
64705;DHT22;51131;52.298;13.686;2023-08-24T02:19:45;22.10;81.00
64705;DHT22;51131;52.298;13.686;2023-08-24T02:22:11;22.10;81.10
64705;DHT22;51131;52.298;13.686;2023-08-24T02:24:38;22.20;81.20
64705;DHT22;51131;52.298;13.686;2023-08-24T02:27:05;22.30;81.30
64705;DHT22;51131;52.298;13.686;2023-08-24T02:29:32;22.10;81.10
64705;DHT22;51131;52.298;13.686;2023-08-24T02:31:59;22.10;81.10
64705;DHT22;51131;52.298;13.686;2023-08-24T02:34:25;22.10;81.10
64705;DHT22;51131;52.298;13.686;2023-08-24T02:36:52;22.10;81.10
64705;DHT22;51131;52.298;13.686;2023-08-24T02:39:19;22.10;81.20
64705;DHT22;51131;52.298;13.686;2023-08-24T02:41:46;22.30;81.40
64705;DHT22;51131;52.298;13.686;2023-08-24T02:44:13;22.10;81.20
64705;DHT22;51131;52.298;13.686;2023-08-24T02:46:40;22.10;81.20
64705;DHT22;51131;52.298;13.686;2023-08-24T02:49:06;22.50;81.60
64705;DHT22;51131;52.298;13.686;2023-08-24T02:51:34;22.10;81.30
64705;DHT22;51131;52.298;13.686;2023-08-24T02:54:00;22.20;82.00
64705;DHT22;51131;52.298;13.686;2023-08-24T02:56:27;21.70;81.00
64705;DHT22;51131;52.298;13.686;2023-08-24T02:58:54;22.10;81.30
64705;DHT22;51131;52.298;13.686;2023-08-24T03:01:21;22.10;81.30
64705;DHT22;51131;52.298;13.686;2023-08-24T03:03:48;22.10;81.30
64705;DHT22;51131;52.298;13.686;2023-08-24T03:06:15;22.50;81.70
64705;DHT22;51131;52.298;13.686;2023-08-24T03:08:42;22.10;81.30
64705;DHT22;51131;52.298;13.686;2023-08-24T03:11:09;22.10;81.30
64705;DHT22;51131;52.298;13.686;2023-08-24T03:13:36;22.20;81.40
64705;DHT22;51131;52.298;13.686;2023-08-24T03:16:04;22.10;81.20
64705;DHT22;51131;52.298;13.686;2023-08-24T03:18:31;22.10;81.30
64705;DHT22;51131;52.298;13.686;2023-08-24T03:20:58;22.10;81.30
64705;DHT22;51131;52.298;13.686;2023-08-24T03:23:25;22.10;81.30
64705;DHT22;51131;52.298;13.686;2023-08-24T03:25:52;22.20;81.40
64705;DHT22;51131;52.298;13.686;2023-08-24T03:28:18;22.10;81.30
64705;DHT22;51131;52.298;13.686;2023-08-24T03:30:46;22.10;81.30
64705;DHT22;51131;52.298;13.686;2023-08-24T03:33:13;22.10;81.30
64705;DHT22;51131;52.298;13.686;2023-08-24T03:35:40;22.20;81.40
64705;DHT22;51131;52.298;13.686;2023-08-24T03:38:07;22.10;81.30
64705;DHT22;51131;52.298;13.686;2023-08-24T03:40:34;22.10;81.30
64705;DHT22;51131;52.298;13.686;2023-08-24T03:43:01;22.10;81.30
64705;DHT22;51131;52.298;13.686;2023-08-24T03:45:28;22.10;81.40
64705;DHT22;51131;52.298;13.686;2023-08-24T03:47:54;22.60;81.80
64705;DHT22;51131;52.298;13.686;2023-08-24T03:50:21;22.10;81.30
64705;DHT22;51131;52.298;13.686;2023-08-24T03:52:51;22.10;81.30
64705;DHT22;51131;52.298;13.686;2023-08-24T03:55:18;22.10;81.30
64705;DHT22;51131;52.298;13.686;2023-08-24T03:57:45;22.00;81.20
64705;DHT22;51131;52.298;13.686;2023-08-24T04:00:12;22.30;81.60
64705;DHT22;51131;52.298;13.686;2023-08-24T04:02:38;22.10;81.30
64705;DHT22;51131;52.298;13.686;2023-08-24T04:05:05;22.10;81.30
64705;DHT22;51131;52.298;13.686;2023-08-24T04:07:32;22.10;81.40
64705;DHT22;51131;52.298;13.686;2023-08-24T04:09:59;22.10;81.50
64705;DHT22;51131;52.298;13.686;2023-08-24T04:12:26;22.10;81.40
64705;DHT22;51131;52.298;13.686;2023-08-24T04:14:53;22.20;81.50
64705;DHT22;51131;52.298;13.686;2023-08-24T04:17:19;22.10;81.40
64705;DHT22;51131;52.298;13.686;2023-08-24T04:19:46;22.00;81.30
64705;DHT22;51131;52.298;13.686;2023-08-24T04:22:13;22.10;81.30
64705;DHT22;51131;52.298;13.686;2023-08-24T04:24:39;22.10;81.40
64705;DHT22;51131;52.298;13.686;2023-08-24T04:27:06;22.10;81.50
64705;DHT22;51131;52.298;13.686;2023-08-24T04:29:32;22.10;81.50
64705;DHT22;51131;52.298;13.686;2023-08-24T04:31:59;22.00;81.40
64705;DHT22;51131;52.298;13.686;2023-08-24T04:34:26;22.10;81.50
64705;DHT22;51131;52.298;13.686;2023-08-24T04:36:52;22.10;81.60
64705;DHT22;51131;52.298;13.686;2023-08-24T04:39:21;22.00;81.50
64705;DHT22;51131;52.298;13.686;2023-08-24T04:41:47;22.00;81.50
64705;DHT22;51131;52.298;13.686;2023-08-24T04:44:14;22.00;81.40
64705;DHT22;51131;52.298;13.686;2023-08-24T04:46:41;22.10;81.70
64705;DHT22;51131;52.298;13.686;2023-08-24T04:49:07;22.00;81.50
64705;DHT22;51131;52.298;13.686;2023-08-24T04:51:34;22.00;81.50
64705;DHT22;51131;52.298;13.686;2023-08-24T04:54:00;22.10;81.70
64705;DHT22;51131;52.298;13.686;2023-08-24T04:56:27;22.10;81.70
64705;DHT22;51131;52.298;13.686;2023-08-24T04:58:54;22.60;82.10
64705;DHT22;51131;52.298;13.686;2023-08-24T05:01:23;22.20;81.90
64705;DHT22;51131;52.298;13.686;2023-08-24T05:03:51;22.10;81.70
64705;DHT22;51131;52.298;13.686;2023-08-24T05:06:18;22.00;81.70
64705;DHT22;51131;52.298;13.686;2023-08-24T05:08:45;22.10;81.80
64705;DHT22;51131;52.298;13.686;2023-08-24T05:11:12;22.00;81.80
64705;DHT22;51131;52.298;13.686;2023-08-24T05:13:40;22.00;81.90
64705;DHT22;51131;52.298;13.686;2023-08-24T05:16:07;22.00;81.90
64705;DHT22;51131;52.298;13.686;2023-08-24T05:18:34;22.00;82.00
64705;DHT22;51131;52.298;13.686;2023-08-24T05:21:02;22.10;82.00
64705;DHT22;51131;52.298;13.686;2023-08-24T05:23:30;22.10;82.00
64705;DHT22;51131;52.298;13.686;2023-08-24T05:26:00;22.20;82.10
64705;DHT22;51131;52.298;13.686;2023-08-24T05:28:27;22.00;82.00
64705;DHT22;51131;52.298;13.686;2023-08-24T05:30:54;22.20;82.20
64705;DHT22;51131;52.298;13.686;2023-08-24T05:33:21;22.00;82.00
64705;DHT22;51131;52.298;13.686;2023-08-24T05:35:49;22.00;82.10
64705;DHT22;51131;52.298;13.686;2023-08-24T05:38:15;22.10;82.20
64705;DHT22;51131;52.298;13.686;2023-08-24T05:40:43;22.00;82.10
64705;DHT22;51131;52.298;13.686;2023-08-24T05:43:10;22.00;82.20
64705;DHT22;51131;52.298;13.686;2023-08-24T05:45:36;22.00;82.10
64705;DHT22;51131;52.298;13.686;2023-08-24T05:48:05;22.00;82.20
64705;DHT22;51131;52.298;13.686;2023-08-24T05:50:33;22.00;82.30
64705;DHT22;51131;52.298;13.686;2023-08-24T05:52:59;22.00;82.40
64705;DHT22;51131;52.298;13.686;2023-08-24T05:55:26;22.10;82.50
64705;DHT22;51131;52.298;13.686;2023-08-24T05:57:53;22.00;82.40
64705;DHT22;51131;52.298;13.686;2023-08-24T06:00:19;22.10;82.50
64705;DHT22;51131;52.298;13.686;2023-08-24T06:02:48;22.00;82.40
64705;DHT22;51131;52.298;13.686;2023-08-24T06:05:15;22.00;82.40
64705;DHT22;51131;52.298;13.686;2023-08-24T06:07:44;22.00;82.50
64705;DHT22;51131;52.298;13.686;2023-08-24T06:10:12;22.00;82.70
64705;DHT22;51131;52.298;13.686;2023-08-24T06:12:38;22.20;82.90
64705;DHT22;51131;52.298;13.686;2023-08-24T06:15:05;22.00;82.70
64705;DHT22;51131;52.298;13.686;2023-08-24T06:17:35;22.00;82.80
64705;DHT22;51131;52.298;13.686;2023-08-24T06:20:05;21.90;82.80
64705;DHT22;51131;52.298;13.686;2023-08-24T06:22:32;22.00;83.00
64705;DHT22;51131;52.298;13.686;2023-08-24T06:24:58;22.10;83.10
64705;DHT22;51131;52.298;13.686;2023-08-24T06:27:26;22.10;83.10
64705;DHT22;51131;52.298;13.686;2023-08-24T06:29:53;22.00;83.10
64705;DHT22;51131;52.298;13.686;2023-08-24T06:32:19;22.00;83.20
64705;DHT22;51131;52.298;13.686;2023-08-24T06:34:46;22.00;83.20
64705;DHT22;51131;52.298;13.686;2023-08-24T06:37:13;22.00;83.20
64705;DHT22;51131;52.298;13.686;2023-08-24T06:39:39;22.10;83.40
64705;DHT22;51131;52.298;13.686;2023-08-24T06:42:06;22.10;83.50
64705;DHT22;51131;52.298;13.686;2023-08-24T06:44:33;22.00;83.40
64705;DHT22;51131;52.298;13.686;2023-08-24T06:46:59;22.00;83.40
64705;DHT22;51131;52.298;13.686;2023-08-24T06:49:30;22.00;83.40
64705;DHT22;51131;52.298;13.686;2023-08-24T06:51:57;22.00;83.40
64705;DHT22;51131;52.298;13.686;2023-08-24T06:54:24;22.00;83.40
64705;DHT22;51131;52.298;13.686;2023-08-24T06:56:53;22.00;83.50
64705;DHT22;51131;52.298;13.686;2023-08-24T06:59:20;22.00;84.20
64705;DHT22;51131;52.298;13.686;2023-08-24T07:01:47;22.00;83.70
64705;DHT22;51131;52.298;13.686;2023-08-24T07:04:14;22.00;83.70
64705;DHT22;51131;52.298;13.686;2023-08-24T07:06:40;22.00;83.70
64705;DHT22;51131;52.298;13.686;2023-08-24T07:09:09;22.00;82.50
64705;DHT22;51131;52.298;13.686;2023-08-24T07:11:35;22.10;83.30
64705;DHT22;51131;52.298;13.686;2023-08-24T07:14:02;22.30;82.70
64705;DHT22;51131;52.298;13.686;2023-08-24T07:16:29;22.30;82.40
64705;DHT22;51131;52.298;13.686;2023-08-24T07:18:55;22.50;82.40
64705;DHT22;51131;52.298;13.686;2023-08-24T07:21:22;22.50;81.90
64705;DHT22;51131;52.298;13.686;2023-08-24T07:23:49;22.60;81.90
64705;DHT22;51131;52.298;13.686;2023-08-24T07:26:16;22.70;81.70
64705;DHT22;51131;52.298;13.686;2023-08-24T07:28:42;22.60;81.60
64705;DHT22;51131;52.298;13.686;2023-08-24T07:31:09;22.60;81.20
64705;DHT22;51131;52.298;13.686;2023-08-24T07:33:40;22.70;81.20
64705;DHT22;51131;52.298;13.686;2023-08-24T07:36:07;22.70;80.80
64705;DHT22;51131;52.298;13.686;2023-08-24T07:38:33;22.80;80.90
64705;DHT22;51131;52.298;13.686;2023-08-24T07:41:00;22.70;80.90
64705;DHT22;51131;52.298;13.686;2023-08-24T07:43:27;22.90;81.10
64705;DHT22;51131;52.298;13.686;2023-08-24T07:45:53;22.80;81.00
64705;DHT22;51131;52.298;13.686;2023-08-24T07:48:21;22.90;80.90
64705;DHT22;51131;52.298;13.686;2023-08-24T07:50:48;22.80;80.90
64705;DHT22;51131;52.298;13.686;2023-08-24T07:53:14;22.90;81.10
64705;DHT22;51131;52.298;13.686;2023-08-24T07:55:41;22.90;81.10
64705;DHT22;51131;52.298;13.686;2023-08-24T07:58:09;22.80;81.20
64705;DHT22;51131;52.298;13.686;2023-08-24T08:00:35;22.80;81.00
64705;DHT22;51131;52.298;13.686;2023-08-24T08:03:02;22.80;81.40
64705;DHT22;51131;52.298;13.686;2023-08-24T08:05:29;22.80;81.30
64705;DHT22;51131;52.298;13.686;2023-08-24T08:07:55;22.80;81.10
64705;DHT22;51131;52.298;13.686;2023-08-24T08:10:22;22.80;81.40
64705;DHT22;51131;52.298;13.686;2023-08-24T08:12:49;22.70;81.30
64705;DHT22;51131;52.298;13.686;2023-08-24T08:15:15;22.70;81.40
64705;DHT22;51131;52.298;13.686;2023-08-24T08:17:42;22.70;81.30
64705;DHT22;51131;52.298;13.686;2023-08-24T08:20:09;22.70;81.20
64705;DHT22;51131;52.298;13.686;2023-08-24T08:22:36;22.70;81.40
64705;DHT22;51131;52.298;13.686;2023-08-24T08:25:05;22.70;81.40
64705;DHT22;51131;52.298;13.686;2023-08-24T08:27:32;22.70;81.30
64705;DHT22;51131;52.298;13.686;2023-08-24T08:29:59;22.70;81.40
64705;DHT22;51131;52.298;13.686;2023-08-24T08:32:26;22.70;81.50
64705;DHT22;51131;52.298;13.686;2023-08-24T08:34:54;22.70;81.60
64705;DHT22;51131;52.298;13.686;2023-08-24T08:37:23;22.60;81.00
64705;DHT22;51131;52.298;13.686;2023-08-24T08:39:50;22.70;81.30
64705;DHT22;51131;52.298;13.686;2023-08-24T08:42:16;22.70;80.70
64705;DHT22;51131;52.298;13.686;2023-08-24T08:44:45;22.70;81.50
64705;DHT22;51131;52.298;13.686;2023-08-24T08:47:11;22.70;81.50
64705;DHT22;51131;52.298;13.686;2023-08-24T08:49:38;22.70;81.60
64705;DHT22;51131;52.298;13.686;2023-08-24T08:52:05;22.80;81.50
64705;DHT22;51131;52.298;13.686;2023-08-24T08:54:32;22.70;81.10
64705;DHT22;51131;52.298;13.686;2023-08-24T08:57:02;23.30;81.90
64705;DHT22;51131;52.298;13.686;2023-08-24T08:59:29;22.60;81.60
64705;DHT22;51131;52.298;13.686;2023-08-24T09:01:57;22.80;81.80
64705;DHT22;51131;52.298;13.686;2023-08-24T09:04:27;23.30;82.30
64705;DHT22;51131;52.298;13.686;2023-08-24T09:06:56;22.60;81.90
64705;DHT22;51131;52.298;13.686;2023-08-24T09:09:22;22.70;81.90
64705;DHT22;51131;52.298;13.686;2023-08-24T09:11:49;22.60;81.70
64705;DHT22;51131;52.298;13.686;2023-08-24T09:14:16;22.60;81.60
64705;DHT22;51131;52.298;13.686;2023-08-24T09:16:43;22.60;81.70
64705;DHT22;51131;52.298;13.686;2023-08-24T09:19:13;23.10;82.10
64705;DHT22;51131;52.298;13.686;2023-08-24T09:21:40;22.60;81.50
64705;DHT22;51131;52.298;13.686;2023-08-24T09:24:08;22.80;81.80
64705;DHT22;51131;52.298;13.686;2023-08-24T09:26:37;22.60;81.50
64705;DHT22;51131;52.298;13.686;2023-08-24T09:29:15;22.90;82.20
64705;DHT22;51131;52.298;13.686;2023-08-24T09:31:42;22.60;82.00
64705;DHT22;51131;52.298;13.686;2023-08-24T09:34:12;22.50;82.10
64705;DHT22;51131;52.298;13.686;2023-08-24T09:36:39;22.50;81.40
64705;DHT22;51131;52.298;13.686;2023-08-24T09:39:06;22.70;82.10
64705;DHT22;51131;52.298;13.686;2023-08-24T09:41:43;22.50;81.80
64705;DHT22;51131;52.298;13.686;2023-08-24T09:44:10;22.50;81.80
64705;DHT22;51131;52.298;13.686;2023-08-24T09:46:38;22.60;81.90
64705;DHT22;51131;52.298;13.686;2023-08-24T09:49:05;22.50;82.10
64705;DHT22;51131;52.298;13.686;2023-08-24T09:51:35;22.80;82.30
64705;DHT22;51131;52.298;13.686;2023-08-24T09:54:07;22.50;81.70
64705;DHT22;51131;52.298;13.686;2023-08-24T09:56:36;22.50;82.00
64705;DHT22;51131;52.298;13.686;2023-08-24T10:01:34;22.50;80.80
64705;DHT22;51131;52.298;13.686;2023-08-24T10:04:01;22.50;81.70
64705;DHT22;51131;52.298;13.686;2023-08-24T10:06:30;22.50;82.10
64705;DHT22;51131;52.298;13.686;2023-08-24T10:09:00;22.50;82.30
64705;DHT22;51131;52.298;13.686;2023-08-24T10:11:28;22.60;82.30
64705;DHT22;51131;52.298;13.686;2023-08-24T10:14:00;22.50;81.50
64705;DHT22;51131;52.298;13.686;2023-08-24T10:16:33;22.50;81.30
64705;DHT22;51131;52.298;13.686;2023-08-24T10:19:00;22.40;81.80
64705;DHT22;51131;52.298;13.686;2023-08-24T10:21:28;22.60;82.30
64705;DHT22;51131;52.298;13.686;2023-08-24T10:23:55;22.50;82.30
64705;DHT22;51131;52.298;13.686;2023-08-24T10:26:23;22.80;82.70
64705;DHT22;51131;52.298;13.686;2023-08-24T10:28:51;22.50;80.70
64705;DHT22;51131;52.298;13.686;2023-08-24T10:31:18;22.50;80.90
64705;DHT22;51131;52.298;13.686;2023-08-24T10:33:46;22.50;81.40
64705;DHT22;51131;52.298;13.686;2023-08-24T10:36:13;22.50;80.50
64705;DHT22;51131;52.298;13.686;2023-08-24T10:38:40;22.50;81.70
64705;DHT22;51131;52.298;13.686;2023-08-24T10:41:08;22.50;81.90
64705;DHT22;51131;52.298;13.686;2023-08-24T10:43:38;22.50;82.20
64705;DHT22;51131;52.298;13.686;2023-08-24T10:46:12;22.60;82.40
64705;DHT22;51131;52.298;13.686;2023-08-24T10:53:51;22.40;81.80
64705;DHT22;51131;52.298;13.686;2023-08-24T10:56:18;22.50;82.40
64705;DHT22;51131;52.298;13.686;2023-08-24T10:58:46;22.60;82.50
64705;DHT22;51131;52.298;13.686;2023-08-24T11:01:16;22.50;82.10
64705;DHT22;51131;52.298;13.686;2023-08-24T11:03:50;22.50;82.40
64705;DHT22;51131;52.298;13.686;2023-08-24T11:06:18;22.40;82.20
64705;DHT22;51131;52.298;13.686;2023-08-24T11:08:46;22.40;81.90
64705;DHT22;51131;52.298;13.686;2023-08-24T11:11:19;22.60;81.90
64705;DHT22;51131;52.298;13.686;2023-08-24T11:16:39;22.40;82.30
64705;DHT22;51131;52.298;13.686;2023-08-24T11:19:06;22.40;82.50
64705;DHT22;51131;52.298;13.686;2023-08-24T11:21:33;22.40;82.60
64705;DHT22;51131;52.298;13.686;2023-08-24T11:24:01;22.40;82.60
64705;DHT22;51131;52.298;13.686;2023-08-24T11:26:29;22.50;83.20
64705;DHT22;51131;52.298;13.686;2023-08-24T11:28:59;22.50;82.50
64705;DHT22;51131;52.298;13.686;2023-08-24T11:31:26;22.50;82.30
64705;DHT22;51131;52.298;13.686;2023-08-24T11:33:53;22.40;82.20
64705;DHT22;51131;52.298;13.686;2023-08-24T11:36:21;22.60;82.20
64705;DHT22;51131;52.298;13.686;2023-08-24T11:38:52;22.40;82.40
64705;DHT22;51131;52.298;13.686;2023-08-24T11:41:18;22.50;82.20
64705;DHT22;51131;52.298;13.686;2023-08-24T11:43:46;22.50;82.70
64705;DHT22;51131;52.298;13.686;2023-08-24T11:46:17;22.50;82.90
64705;DHT22;51131;52.298;13.686;2023-08-24T11:48:45;22.40;82.90
64705;DHT22;51131;52.298;13.686;2023-08-24T11:51:12;22.40;82.70
64705;DHT22;51131;52.298;13.686;2023-08-24T11:53:39;22.40;82.70
64705;DHT22;51131;52.298;13.686;2023-08-24T11:56:07;22.40;82.70
64705;DHT22;51131;52.298;13.686;2023-08-24T11:58:34;22.50;82.90
64705;DHT22;51131;52.298;13.686;2023-08-24T12:01:01;23.00;83.20
64705;DHT22;51131;52.298;13.686;2023-08-24T12:03:28;22.90;82.30
64705;DHT22;51131;52.298;13.686;2023-08-24T12:05:58;22.50;82.50
64705;DHT22;51131;52.298;13.686;2023-08-24T12:08:25;22.40;82.70
64705;DHT22;51131;52.298;13.686;2023-08-24T12:10:52;22.40;82.80
64705;DHT22;51131;52.298;13.686;2023-08-24T12:13:18;22.40;82.70
64705;DHT22;51131;52.298;13.686;2023-08-24T12:15:45;22.40;82.80
64705;DHT22;51131;52.298;13.686;2023-08-24T12:18:14;23.00;83.50
64705;DHT22;51131;52.298;13.686;2023-08-24T12:20:40;22.40;82.80
64705;DHT22;51131;52.298;13.686;2023-08-24T12:23:09;23.10;82.70
64705;DHT22;51131;52.298;13.686;2023-08-24T12:25:37;22.40;82.30
64705;DHT22;51131;52.298;13.686;2023-08-24T12:28:08;23.00;82.90
64705;DHT22;51131;52.298;13.686;2023-08-24T12:30:43;22.40;82.00
64705;DHT22;51131;52.298;13.686;2023-08-24T12:33:20;22.40;81.90
64705;DHT22;51131;52.298;13.686;2023-08-24T12:35:47;22.40;82.30
64705;DHT22;51131;52.298;13.686;2023-08-24T12:38:13;22.40;82.50
64705;DHT22;51131;52.298;13.686;2023-08-24T12:40:40;22.40;82.50
64705;DHT22;51131;52.298;13.686;2023-08-24T12:43:07;22.40;82.50
64705;DHT22;51131;52.298;13.686;2023-08-24T12:45:33;22.40;82.40
64705;DHT22;51131;52.298;13.686;2023-08-24T12:48:00;22.40;82.50
64705;DHT22;51131;52.298;13.686;2023-08-24T12:50:27;22.30;82.40
64705;DHT22;51131;52.298;13.686;2023-08-24T12:52:53;22.40;82.50
64705;DHT22;51131;52.298;13.686;2023-08-24T12:55:22;22.40;82.50
64705;DHT22;51131;52.298;13.686;2023-08-24T12:57:49;22.40;82.50
64705;DHT22;51131;52.298;13.686;2023-08-24T13:00:16;22.50;82.50
64705;DHT22;51131;52.298;13.686;2023-08-24T13:02:44;22.40;82.60
64705;DHT22;51131;52.298;13.686;2023-08-24T13:05:11;22.40;82.70
64705;DHT22;51131;52.298;13.686;2023-08-24T13:07:37;22.40;82.50
64705;DHT22;51131;52.298;13.686;2023-08-24T13:10:04;22.40;82.40
64705;DHT22;51131;52.298;13.686;2023-08-24T13:12:33;22.40;82.60
64705;DHT22;51131;52.298;13.686;2023-08-24T13:15:01;23.10;83.40
64705;DHT22;51131;52.298;13.686;2023-08-24T13:17:32;22.30;82.70
64705;DHT22;51131;52.298;13.686;2023-08-24T13:19:58;22.40;82.80
64705;DHT22;51131;52.298;13.686;2023-08-24T13:22:25;22.40;82.80
64705;DHT22;51131;52.298;13.686;2023-08-24T13:24:52;22.30;82.50
64705;DHT22;51131;52.298;13.686;2023-08-24T13:27:18;22.40;82.70
64705;DHT22;51131;52.298;13.686;2023-08-24T13:29:45;22.30;82.70
64705;DHT22;51131;52.298;13.686;2023-08-24T13:32:12;22.40;82.90
64705;DHT22;51131;52.298;13.686;2023-08-24T13:34:38;22.40;82.80
64705;DHT22;51131;52.298;13.686;2023-08-24T13:37:05;22.70;83.10
64705;DHT22;51131;52.298;13.686;2023-08-24T13:39:32;22.30;82.80
64705;DHT22;51131;52.298;13.686;2023-08-24T13:41:59;22.30;82.90
64705;DHT22;51131;52.298;13.686;2023-08-24T13:44:25;22.40;83.10
64705;DHT22;51131;52.298;13.686;2023-08-24T13:46:52;22.30;83.00
64705;DHT22;51131;52.298;13.686;2023-08-24T13:49:19;22.30;83.10
64705;DHT22;51131;52.298;13.686;2023-08-24T13:52:05;22.40;83.20
64705;DHT22;51131;52.298;13.686;2023-08-24T13:54:32;22.30;83.00
64705;DHT22;51131;52.298;13.686;2023-08-24T13:56:58;22.50;83.30
64705;DHT22;51131;52.298;13.686;2023-08-24T13:59:27;22.40;83.20
64705;DHT22;51131;52.298;13.686;2023-08-24T14:01:53;22.30;83.10
64705;DHT22;51131;52.298;13.686;2023-08-24T14:04:20;22.30;83.20
64705;DHT22;51131;52.298;13.686;2023-08-24T14:06:47;22.30;83.20
64705;DHT22;51131;52.298;13.686;2023-08-24T14:09:15;22.30;83.30
64705;DHT22;51131;52.298;13.686;2023-08-24T14:11:41;22.30;83.20
64705;DHT22;51131;52.298;13.686;2023-08-24T14:14:08;22.30;83.40
64705;DHT22;51131;52.298;13.686;2023-08-24T14:16:35;22.30;83.40
64705;DHT22;51131;52.298;13.686;2023-08-24T14:19:02;22.30;83.10
64705;DHT22;51131;52.298;13.686;2023-08-24T14:21:31;22.30;83.30
64705;DHT22;51131;52.298;13.686;2023-08-24T14:24:10;22.30;83.30
64705;DHT22;51131;52.298;13.686;2023-08-24T14:26:37;22.30;83.30
64705;DHT22;51131;52.298;13.686;2023-08-24T14:29:05;22.60;83.60
64705;DHT22;51131;52.298;13.686;2023-08-24T14:31:32;22.30;83.40
64705;DHT22;51131;52.298;13.686;2023-08-24T14:33:59;22.30;83.50
64705;DHT22;51131;52.298;13.686;2023-08-24T14:36:25;22.30;83.50
64705;DHT22;51131;52.298;13.686;2023-08-24T14:38:52;22.30;83.50
64705;DHT22;51131;52.298;13.686;2023-08-24T14:41:19;22.30;83.50
64705;DHT22;51131;52.298;13.686;2023-08-24T14:43:46;22.40;83.80
64705;DHT22;51131;52.298;13.686;2023-08-24T14:46:13;22.30;83.20
64705;DHT22;51131;52.298;13.686;2023-08-24T14:48:40;22.20;83.20
64705;DHT22;51131;52.298;13.686;2023-08-24T14:51:07;22.20;83.30
64705;DHT22;51131;52.298;13.686;2023-08-24T14:53:33;22.30;83.30
64705;DHT22;51131;52.298;13.686;2023-08-24T14:56:00;22.20;83.30
64705;DHT22;51131;52.298;13.686;2023-08-24T14:58:26;22.30;83.30
64705;DHT22;51131;52.298;13.686;2023-08-24T15:00:54;22.30;83.40
64705;DHT22;51131;52.298;13.686;2023-08-24T15:03:21;22.30;83.40
64705;DHT22;51131;52.298;13.686;2023-08-24T15:08:24;22.20;82.10
64705;DHT22;51131;52.298;13.686;2023-08-24T15:10:50;22.20;82.30
64705;DHT22;51131;52.298;13.686;2023-08-24T15:13:17;22.30;82.90
64705;DHT22;51131;52.298;13.686;2023-08-24T15:15:44;22.30;83.20
64705;DHT22;51131;52.298;13.686;2023-08-24T15:18:10;22.20;83.20
64705;DHT22;51131;52.298;13.686;2023-08-24T15:20:37;22.20;83.30
64705;DHT22;51131;52.298;13.686;2023-08-24T15:23:04;22.30;83.50
64705;DHT22;51131;52.298;13.686;2023-08-24T15:25:31;22.20;83.50
64705;DHT22;51131;52.298;13.686;2023-08-24T15:27:58;22.40;83.70
64705;DHT22;51131;52.298;13.686;2023-08-24T15:30:24;22.20;83.50
64705;DHT22;51131;52.298;13.686;2023-08-24T15:32:51;22.20;83.50
64705;DHT22;51131;52.298;13.686;2023-08-24T15:35:17;22.40;83.80